< < Back
Terminal Aerodrome Forecast


Current Version              Previous Versions:   1  2  3  4  5  6  7  8  9  

Terminal Aerodrome Forecast

731
FTUS42 KJAX 040026 AAA
TAFSSI
TAF AMD
KSSI 040026Z 0400/0424 08004KT P6SM FEW010 SCT060
     FM040400 16005KT 6SM BR BKN010
     FM040700 17005KT 1/4SM FG OVC002
     FM041400 20007KT 4SM BR SCT002 BKN008
     FM041600 18010G16KT P6SM FEW250=



Latest METAR

967
SAUS70 KWBC 040400 RRA
MTRSSI
METAR KSSI 040353Z AUTO 18007KT 10SM FEW003 16/16 A3015 RMK AO2 SLP210
T01610156


USA.gov is the U.S. government's official web portal to all federal, state and local government web resources and services.